Time;durP1;ratioP1;P1;durP2;ratioP2;P2;SDS_P1;SDS_P2;PMS_P1;PMS_P2;Temp;Humidity;BMP_temperature;BMP_pressure;BME280_temperature;BME280_humidity;BME280_pressure;Samples;Min_cycle;Max_cycle;Signal;HPM_P1;HPM_P2
2021/12/02 00:01:58;;;;;;;21.10;7.47;;;;;;;;;;5034833;28;20025;-53
2021/12/02 00:04:26;;;;;;;31.65;15.18;;;;;;;;;;5033750;28;20029;-53
2021/12/02 00:06:52;;;;;;;22.55;8.82;;;;;;;;;;5033699;28;20075;-50
2021/12/02 00:09:18;;;;;;;11.23;4.40;;;;;;;;;;5033948;28;20030;-50
2021/12/02 00:11:47;;;;;;;9.70;4.20;;;;;;;;;;5033329;28;20116;-48
2021/12/02 00:14:15;;;;;;;11.30;4.28;;;;;;;;;;5033454;28;20104;-52
2021/12/02 00:22:11;;;;;;;10.95;5.72;;;;;;;;;;5033468;28;20049;-51
2021/12/02 00:24:39;;;;;;;9.00;5.13;;;;;;;;;;5033842;28;20076;-54
2021/12/02 00:27:06;;;;;;;14.73;5.75;;;;;;;;;;5034245;28;20036;-52
2021/12/02 00:29:33;;;;;;;10.05;5.10;;;;;;;;;;5033671;28;20479;-48
2021/12/02 00:32:01;;;;;;;10.65;5.22;;;;;;;;;;5033034;28;20034;-50
2021/12/02 00:34:29;;;;;;;14.40;6.20;;;;;;;;;;5033370;28;20029;-52
2021/12/02 00:36:56;;;;;;;13.38;7.18;;;;;;;;;;5032385;28;20026;-52
2021/12/02 00:39:23;;;;;;;14.52;5.82;;;;;;;;;;5033409;28;20034;-53
2021/12/02 00:41:49;;;;;;;13.95;5.82;;;;;;;;;;5033612;28;20033;-50
2021/12/02 00:44:16;;;;;;;10.23;5.50;;;;;;;;;;5032676;28;20378;-51
2021/12/02 00:46:44;;;;;;;13.82;6.28;;;;;;;;;;5033365;28;20343;-51
2021/12/02 00:49:12;;;;;;;14.82;6.10;;;;;;;;;;5036945;28;20572;-49
2021/12/02 00:51:40;;;;;;;8.05;4.65;;;;;;;;;;5037168;28;20068;-50
2021/12/02 00:54:09;;;;;;;14.77;7.75;;;;;;;;;;5037011;28;20028;-52
2021/12/02 00:56:35;;;;;;;7.60;4.90;;;;;;;;;;5037439;28;20104;-54
2021/12/02 00:59:01;;;;;;;13.90;6.47;;;;;;;;;;5037000;28;20082;-49
2021/12/02 01:01:38;;;;;;;13.88;6.40;;;;;;;;;;5037334;28;20025;-53
2021/12/02 01:04:12;;;;;;;20.60;9.38;;;;;;;;;;5037299;28;20032;-51
2021/12/02 01:06:39;;;;;;;10.00;4.20;;;;;;;;;;5037396;28;20436;-49
2021/12/02 01:09:06;;;;;;;8.02;4.35;;;;;;;;;;5036637;28;20177;-50
2021/12/02 01:11:32;;;;;;;8.73;4.25;;;;;;;;;;5026031;28;20041;-49
2021/12/02 01:13:58;;;;;;;8.13;4.40;;;;;;;;;;5018026;28;20096;-49
2021/12/02 01:16:25;;;;;;;13.52;4.55;;;;;;;;;;5017221;28;20026;-53
2021/12/02 01:18:52;;;;;;;142.40;56.60;;;;;;;;;;5017303;28;20032;-49
2021/12/02 01:21:22;;;;;;;22.02;9.07;;;;;;;;;;5017004;28;20026;-51
2021/12/02 01:23:50;;;;;;;13.77;6.32;;;;;;;;;;5017141;28;20049;-50
2021/12/02 01:26:18;;;;;;;12.73;5.90;;;;;;;;;;5017170;28;20034;-50
2021/12/02 01:28:44;;;;;;;12.18;5.00;;;;;;;;;;5030859;28;20028;-51
2021/12/02 01:31:11;;;;;;;26.42;9.75;;;;;;;;;;5036697;28;20073;-52
2021/12/02 01:33:39;;;;;;;27.30;8.80;;;;;;;;;;5036624;28;20029;-52
2021/12/02 01:36:05;;;;;;;12.82;5.80;;;;;;;;;;5036727;28;20068;-53
2021/12/02 01:38:32;;;;;;;14.13;6.03;;;;;;;;;;5036396;28;20467;-51
2021/12/02 01:40:59;;;;;;;10.48;4.32;;;;;;;;;;5036845;28;20033;-52
2021/12/02 01:43:34;;;;;;;7.45;3.47;;;;;;;;;;5036545;28;20028;-52
2021/12/02 01:46:03;;;;;;;9.90;3.92;;;;;;;;;;5036378;28;20025;-50
2021/12/02 01:48:31;;;;;;;13.57;5.03;;;;;;;;;;5036427;28;20025;-50
2021/12/02 01:51:01;;;;;;;9.57;3.65;;;;;;;;;;5036109;28;20038;-52
2021/12/02 01:53:31;;;;;;;7.10;3.22;;;;;;;;;;5036178;28;20382;-54
2021/12/02 01:56:09;;;;;;;10.13;3.63;;;;;;;;;;5036169;28;20029;-52
2021/12/02 01:58:41;;;;;;;19.88;8.77;;;;;;;;;;5023343;28;20022;-54
2021/12/02 02:01:09;;;;;;;11.07;5.55;;;;;;;;;;5015747;28;20105;-50
2021/12/02 02:03:35;;;;;;;8.45;3.08;;;;;;;;;;5016407;28;20030;-55
2021/12/02 02:06:04;;;;;;;6.75;2.92;;;;;;;;;;5016212;28;20032;-55
2021/12/02 02:08:31;;;;;;;10.68;5.03;;;;;;;;;;5016254;28;20026;-51
2021/12/02 02:10:57;;;;;;;8.23;3.28;;;;;;;;;;5016310;28;20034;-51
2021/12/02 02:13:23;;;;;;;8.10;3.35;;;;;;;;;;5016141;28;20493;-55
2021/12/02 02:15:52;;;;;;;6.97;2.75;;;;;;;;;;5016206;28;20417;-48
2021/12/02 02:18:23;;;;;;;7.97;3.25;;;;;;;;;;5016260;28;20109;-52
2021/12/02 02:20:56;;;;;;;6.78;3.17;;;;;;;;;;5015713;28;20030;-51
2021/12/02 02:23:24;;;;;;;7.68;2.92;;;;;;;;;;5015571;28;20057;-53
2021/12/02 02:25:50;;;;;;;7.78;2.83;;;;;;;;;;5015957;28;20502;-49
2021/12/02 02:28:16;;;;;;;6.10;2.70;;;;;;;;;;5015823;28;20431;-51
2021/12/02 02:30:43;;;;;;;5.68;3.05;;;;;;;;;;5015526;28;20390;-53
2021/12/02 02:33:11;;;;;;;6.50;2.83;;;;;;;;;;5015737;28;20109;-54
2021/12/02 02:35:38;;;;;;;6.07;2.88;;;;;;;;;;5024194;28;20029;-54
2021/12/02 02:38:04;;;;;;;6.03;2.72;;;;;;;;;;5035337;28;20087;-53
2021/12/02 02:40:31;;;;;;;9.75;4.18;;;;;;;;;;5034501;28;20030;-53
2021/12/02 02:43:04;;;;;;;6.82;2.35;;;;;;;;;;5028064;28;20505;-53
2021/12/02 02:45:30;;;;;;;4.72;2.50;;;;;;;;;;5015585;28;20468;-50
2021/12/02 02:47:57;;;;;;;5.82;2.53;;;;;;;;;;5015505;28;20030;-50
2021/12/02 02:50:23;;;;;;;6.13;2.88;;;;;;;;;;5015184;28;20080;-54
2021/12/02 02:52:49;;;;;;;7.38;2.55;;;;;;;;;;5015543;28;20032;-52
2021/12/02 02:55:22;;;;;;;4.15;2.58;;;;;;;;;;5015094;28;20486;-51
2021/12/02 03:00:52;;;;;;;8.35;4.68;;;;;;;;;;5013522;28;20487;-48
2021/12/02 03:03:38;;;;;;;8.15;2.55;;;;;;;;;;5015243;28;20033;-51
2021/12/02 03:06:33;;;;;;;4.00;1.70;;;;;;;;;;5015166;28;20555;-53
2021/12/02 03:09:01;;;;;;;3.95;1.30;;;;;;;;;;5014659;28;20041;-50
2021/12/02 03:11:36;;;;;;;5.40;1.70;;;;;;;;;;5014954;28;20044;-53
2021/12/02 03:14:10;;;;;;;2.28;1.23;;;;;;;;;;5015177;28;20021;-52
2021/12/02 03:16:43;;;;;;;4.45;1.83;;;;;;;;;;5014620;28;20038;-49
2021/12/02 03:19:10;;;;;;;3.78;1.63;;;;;;;;;;5015021;28;20029;-52
2021/12/02 03:21:36;;;;;;;5.95;1.70;;;;;;;;;;5014787;28;20113;-53
2021/12/02 03:24:02;;;;;;;6.22;1.80;;;;;;;;;;5014863;28;20136;-53
2021/12/02 03:26:29;;;;;;;2.28;1.08;;;;;;;;;;5014508;28;20022;-54
2021/12/02 03:28:56;;;;;;;2.65;1.27;;;;;;;;;;5014737;28;20471;-52
2021/12/02 03:31:22;;;;;;;3.03;1.15;;;;;;;;;;5014639;28;20034;-51
2021/12/02 03:33:49;;;;;;;2.45;0.98;;;;;;;;;;5014781;28;20105;-54
2021/12/02 03:36:16;;;;;;;3.33;1.60;;;;;;;;;;5014584;28;20022;-53
2021/12/02 03:38:42;;;;;;;5.15;1.63;;;;;;;;;;5014810;28;20118;-53
2021/12/02 03:41:09;;;;;;;5.00;1.90;;;;;;;;;;5014545;28;20108;-52
2021/12/02 03:43:36;;;;;;;8.57;4.70;;;;;;;;;;5014528;28;20026;-52
2021/12/02 03:46:02;;;;;;;4.88;2.65;;;;;;;;;;5014643;28;20049;-48
2021/12/02 03:48:28;;;;;;;128.40;49.78;;;;;;;;;;5014260;28;20032;-47
2021/12/02 03:50:54;;;;;;;35.08;14.45;;;;;;;;;;5014286;28;20049;-48
2021/12/02 03:53:20;;;;;;;44.50;17.00;;;;;;;;;;5014499;28;20030;-47
2021/12/02 03:55:47;;;;;;;19.13;6.72;;;;;;;;;;5014496;28;20041;-52
2021/12/02 03:58:13;;;;;;;9.35;4.32;;;;;;;;;;5014565;28;20026;-50
2021/12/02 04:00:39;;;;;;;5.72;2.60;;;;;;;;;;5014442;28;20026;-48
2021/12/02 04:03:06;;;;;;;32.53;10.45;;;;;;;;;;5013988;28;20018;-52
2021/12/02 04:05:32;;;;;;;8.00;3.45;;;;;;;;;;5014017;28;20459;-47
2021/12/02 04:07:58;;;;;;;8.32;3.50;;;;;;;;;;5014171;28;20033;-48
2021/12/02 04:10:25;;;;;;;12.23;4.70;;;;;;;;;;5014178;28;20030;-55
2021/12/02 04:15:28;;;;;;;7.07;2.75;;;;;;;;;;5014104;28;20030;-54
2021/12/02 04:17:54;;;;;;;7.75;2.42;;;;;;;;;;5014133;28;20021;-49
2021/12/02 04:20:24;;;;;;;62.65;19.05;;;;;;;;;;5013963;28;20041;-49
2021/12/02 04:22:52;;;;;;;27.13;8.85;;;;;;;;;;5013128;28;20029;-50
2021/12/02 04:25:19;;;;;;;22.55;8.52;;;;;;;;;;5013438;28;20061;-51
2021/12/02 04:27:45;;;;;;;10.32;4.20;;;;;;;;;;5013714;28;20032;-51
2021/12/02 04:30:13;;;;;;;6.47;2.55;;;;;;;;;;5013917;28;20076;-55
2021/12/02 04:32:40;;;;;;;22.33;8.52;;;;;;;;;;5013218;28;20025;-54
2021/12/02 04:35:07;;;;;;;27.70;10.05;;;;;;;;;;5013686;28;20052;-55
2021/12/02 04:37:34;;;;;;;17.30;6.95;;;;;;;;;;5013844;28;20160;-53
2021/12/02 04:40:00;;;;;;;5.47;2.80;;;;;;;;;;5013457;28;20029;-50
2021/12/02 04:42:27;;;;;;;6.38;2.00;;;;;;;;;;5013603;28;20030;-49
2021/12/02 04:44:53;;;;;;;7.43;2.45;;;;;;;;;;5014173;28;20033;-50
2021/12/02 04:47:19;;;;;;;4.68;2.33;;;;;;;;;;5013304;28;20489;-51
2021/12/02 04:49:45;;;;;;;6.35;2.75;;;;;;;;;;5013760;28;20101;-49
2021/12/02 04:52:11;;;;;;;7.72;2.20;;;;;;;;;;5013386;28;20077;-51
2021/12/02 04:54:38;;;;;;;12.75;4.22;;;;;;;;;;5013583;28;20508;-54
2021/12/02 04:57:04;;;;;;;9.75;3.75;;;;;;;;;;5013359;28;20402;-54
2021/12/02 04:59:30;;;;;;;11.55;5.50;;;;;;;;;;5013359;28;20491;-50
2021/12/02 05:01:56;;;;;;;9.70;4.07;;;;;;;;;;5013177;28;20553;-52
2021/12/02 05:04:22;;;;;;;6.47;2.90;;;;;;;;;;5013681;28;20022;-53
2021/12/02 05:06:49;;;;;;;4.32;2.70;;;;;;;;;;5013979;28;20030;-52
2021/12/02 05:09:15;;;;;;;2.60;1.33;;;;;;;;;;5013354;28;20033;-52
2021/12/02 05:11:41;;;;;;;3.97;1.70;;;;;;;;;;5013223;28;20379;-52
2021/12/02 05:14:08;;;;;;;5.25;1.95;;;;;;;;;;5013274;28;20356;-53
2021/12/02 05:16:35;;;;;;;6.10;2.35;;;;;;;;;;5013134;28;20033;-53
2021/12/02 05:19:02;;;;;;;3.03;1.88;;;;;;;;;;5013203;28;20033;-53
2021/12/02 05:21:28;;;;;;;3.08;1.55;;;;;;;;;;5012622;28;20076;-52
2021/12/02 05:23:54;;;;;;;5.32;2.22;;;;;;;;;;5013280;28;20050;-55
2021/12/02 05:26:24;;;;;;;5.05;2.15;;;;;;;;;;5013346;28;20026;-54
2021/12/02 05:28:51;;;;;;;3.65;2.03;;;;;;;;;;5013488;28;20022;-54
2021/12/02 05:31:17;;;;;;;2.55;1.40;;;;;;;;;;5013257;28;20045;-53
2021/12/02 05:33:43;;;;;;;3.05;1.58;;;;;;;;;;5013170;28;20026;-53
2021/12/02 05:36:10;;;;;;;7.60;2.50;;;;;;;;;;5015907;28;20494;-50
2021/12/02 05:38:36;;;;;;;7.18;3.65;;;;;;;;;;5017028;28;20226;-54
2021/12/02 05:41:03;;;;;;;8.13;3.40;;;;;;;;;;5016860;28;20383;-53
2021/12/02 05:43:29;;;;;;;4.55;2.58;;;;;;;;;;5016535;28;20022;-53
2021/12/02 05:45:56;;;;;;;6.10;2.45;;;;;;;;;;5016383;28;20022;-53
2021/12/02 05:48:22;;;;;;;10.05;4.38;;;;;;;;;;5016657;28;20033;-52
2021/12/02 05:50:49;;;;;;;8.90;3.78;;;;;;;;;;5015792;28;20034;-53
2021/12/02 05:53:15;;;;;;;15.32;5.97;;;;;;;;;;5015471;28;20057;-53
2021/12/02 05:55:41;;;;;;;6.72;2.90;;;;;;;;;;5016723;28;20026;-50
2021/12/02 05:58:10;;;;;;;6.80;2.67;;;;;;;;;;5015878;28;20036;-52
2021/12/02 06:00:38;;;;;;;5.85;2.40;;;;;;;;;;5016211;28;20490;-53
2021/12/02 06:03:05;;;;;;;5.32;2.47;;;;;;;;;;5015340;28;20109;-50
2021/12/02 06:05:31;;;;;;;4.78;1.50;;;;;;;;;;5014414;28;20059;-52
2021/12/02 06:07:59;;;;;;;3.90;2.30;;;;;;;;;;5015218;28;20030;-52
2021/12/02 06:10:26;;;;;;;3.88;1.70;;;;;;;;;;5014981;28;20041;-48
2021/12/02 06:12:52;;;;;;;3.55;1.95;;;;;;;;;;5014884;28;20018;-52
2021/12/02 06:15:19;;;;;;;2.45;1.90;;;;;;;;;;5015346;28;20156;-55
2021/12/02 06:17:45;;;;;;;2.72;1.63;;;;;;;;;;5015803;28;20083;-49
2021/12/02 06:20:13;;;;;;;4.90;2.05;;;;;;;;;;5016026;28;20029;-54
2021/12/02 06:22:39;;;;;;;5.38;2.30;;;;;;;;;;5015969;28;20014;-52
2021/12/02 06:27:32;;;;;;;7.07;2.92;;;;;;;;;;5016021;28;20088;-54
2021/12/02 06:29:58;;;;;;;2.80;1.88;;;;;;;;;;5016070;28;20029;-53
2021/12/02 06:32:24;;;;;;;6.65;3.55;;;;;;;;;;5015668;28;20038;-52
2021/12/02 06:34:50;;;;;;;9.02;3.40;;;;;;;;;;5015794;28;20052;-53
2021/12/02 06:37:16;;;;;;;5.63;3.40;;;;;;;;;;5015889;28;20028;-54
2021/12/02 06:39:42;;;;;;;9.18;4.20;;;;;;;;;;5014205;28;20026;-52
2021/12/02 06:42:09;;;;;;;9.70;5.03;;;;;;;;;;5013920;28;20026;-51
2021/12/02 06:44:35;;;;;;;15.13;6.43;;;;;;;;;;5015173;28;20383;-54
2021/12/02 06:47:01;;;;;;;16.40;5.90;;;;;;;;;;5015133;28;20467;-50
2021/12/02 06:49:27;;;;;;;10.30;4.60;;;;;;;;;;5015134;28;20030;-52
2021/12/02 06:51:54;;;;;;;6.60;3.95;;;;;;;;;;5015268;28;20045;-53
2021/12/02 06:54:20;;;;;;;7.95;4.05;;;;;;;;;;5013393;28;20022;-54
2021/12/02 06:56:46;;;;;;;5.55;3.08;;;;;;;;;;5014492;28;20481;-51
2021/12/02 06:59:12;;;;;;;4.97;2.80;;;;;;;;;;5014752;28;20041;-52
2021/12/02 07:01:38;;;;;;;5.80;2.90;;;;;;;;;;5015398;28;20030;-50
2021/12/02 07:04:05;;;;;;;5.38;2.47;;;;;;;;;;5015320;28;20080;-52
2021/12/02 07:06:31;;;;;;;8.80;3.60;;;;;;;;;;5015301;28;20029;-49
2021/12/02 07:08:57;;;;;;;6.30;2.75;;;;;;;;;;5013903;28;20028;-52
2021/12/02 07:11:23;;;;;;;5.90;3.50;;;;;;;;;;5014566;28;20030;-52
2021/12/02 07:13:54;;;;;;;4.57;2.17;;;;;;;;;;5014290;28;20026;-51
2021/12/02 07:16:20;;;;;;;8.27;4.38;;;;;;;;;;5014342;28;20014;-48
2021/12/02 07:18:53;;;;;;;4.63;2.63;;;;;;;;;;5014669;28;20096;-53
2021/12/02 07:21:19;;;;;;;11.02;3.80;;;;;;;;;;5014529;28;20041;-51
2021/12/02 07:23:45;;;;;;;7.82;4.82;;;;;;;;;;5014397;28;20038;-54
2021/12/02 07:26:12;;;;;;;15.63;7.47;;;;;;;;;;5015334;28;20022;-50
2021/12/02 07:28:38;;;;;;;5.75;3.55;;;;;;;;;;5014781;28;20032;-53
2021/12/02 07:31:05;;;;;;;13.73;4.80;;;;;;;;;;5014829;28;20056;-51
2021/12/02 07:33:33;;;;;;;6.25;2.88;;;;;;;;;;5014868;28;20129;-52
2021/12/02 07:35:59;;;;;;;7.05;3.08;;;;;;;;;;5014663;28;20022;-53
2021/12/02 07:38:25;;;;;;;4.25;2.33;;;;;;;;;;5014694;28;20110;-50
2021/12/02 07:40:52;;;;;;;13.63;4.28;;;;;;;;;;5014471;28;20061;-52
2021/12/02 07:43:20;;;;;;;6.03;3.35;;;;;;;;;;5014484;28;20022;-51
2021/12/02 07:45:46;;;;;;;5.85;3.15;;;;;;;;;;5014590;28;20510;-51
2021/12/02 07:48:14;;;;;;;6.43;4.22;;;;;;;;;;5014454;28;20378;-51
2021/12/02 07:50:40;;;;;;;6.22;3.05;;;;;;;;;;5014435;28;20479;-50
2021/12/02 07:53:07;;;;;;;11.52;5.30;;;;;;;;;;5014475;28;20030;-53
2021/12/02 07:55:36;;;;;;;7.85;4.43;;;;;;;;;;5014220;28;20029;-53
2021/12/02 07:58:04;;;;;;;5.95;3.22;;;;;;;;;;5013700;28;20036;-48
2021/12/02 08:00:31;;;;;;;8.93;4.03;;;;;;;;;;5014273;28;20026;-51
2021/12/02 08:02:57;;;;;;;15.60;5.38;;;;;;;;;;5014494;28;20030;-47
2021/12/02 08:05:24;;;;;;;8.45;4.15;;;;;;;;;;5014139;28;20021;-52
2021/12/02 08:07:51;;;;;;;13.05;5.93;;;;;;;;;;5014057;28;20028;-50
2021/12/02 08:10:17;;;;;;;11.60;5.00;;;;;;;;;;5014097;28;20026;-50
2021/12/02 08:12:49;;;;;;;10.57;4.50;;;;;;;;;;5014162;28;20032;-49
2021/12/02 08:15:15;;;;;;;;;;;;;;;;;;5014727;28;20025;-51
2021/12/02 08:17:41;;;;;;;8.50;5.20;;;;;;;;;;5013928;28;19912;-49
2021/12/02 08:20:08;;;;;;;9.20;3.70;;;;;;;;;;5013686;28;20079;-50
2021/12/02 08:22:34;;;;;;;6.82;3.42;;;;;;;;;;5013918;28;20471;-52
2021/12/02 08:25:01;;;;;;;10.65;4.32;;;;;;;;;;5013445;28;20042;-49
2021/12/02 08:27:27;;;;;;;12.88;5.47;;;;;;;;;;5014024;28;20056;-50
2021/12/02 08:29:54;;;;;;;8.40;4.05;;;;;;;;;;5014012;28;20024;-53
2021/12/02 08:32:20;;;;;;;7.97;3.97;;;;;;;;;;5013781;28;20034;-51
2021/12/02 08:34:46;;;;;;;6.93;4.00;;;;;;;;;;5014087;28;20485;-51
2021/12/02 08:37:13;;;;;;;8.13;4.22;;;;;;;;;;5013397;28;20030;-52
2021/12/02 08:39:41;;;;;;;8.18;4.72;;;;;;;;;;5013882;28;20160;-54
2021/12/02 08:42:09;;;;;;;10.32;5.13;;;;;;;;;;5013700;28;20037;-52
2021/12/02 08:44:38;;;;;;;9.52;5.32;;;;;;;;;;5013347;28;20026;-54
2021/12/02 08:47:06;;;;;;;10.80;5.18;;;;;;;;;;5013543;28;20037;-53
2021/12/02 08:49:33;;;;;;;11.65;5.28;;;;;;;;;;5013426;28;20030;-55
2021/12/02 08:51:59;;;;;;;11.35;5.20;;;;;;;;;;5013478;28;20062;-54
2021/12/02 08:54:25;;;;;;;12.32;5.53;;;;;;;;;;5013686;28;20414;-52
2021/12/02 08:56:51;;;;;;;12.93;7.55;;;;;;;;;;5013785;28;20018;-54
2021/12/02 08:59:18;;;;;;;6.95;4.25;;;;;;;;;;5013189;28;20025;-53
2021/12/02 09:01:44;;;;;;;11.73;4.45;;;;;;;;;;5013251;28;20072;-55
2021/12/02 09:04:10;;;;;;;10.75;5.40;;;;;;;;;;5013996;28;20467;-51
2021/12/02 09:06:37;;;;;;;6.47;4.22;;;;;;;;;;5013240;28;20498;-49
2021/12/02 09:09:03;;;;;;;7.75;4.60;;;;;;;;;;5014919;28;20494;-51
2021/12/02 09:11:30;;;;;;;10.82;6.13;;;;;;;;;;5017457;28;20543;-55
2021/12/02 09:13:58;;;;;;;10.95;5.22;;;;;;;;;;5017268;28;20065;-54
2021/12/02 09:16:25;;;;;;;11.05;5.60;;;;;;;;;;5016954;28;20030;-53
2021/12/02 09:18:51;;;;;;;11.48;5.85;;;;;;;;;;5017378;28;20018;-52
2021/12/02 09:21:17;;;;;;;15.13;6.80;;;;;;;;;;5017112;28;20029;-55
2021/12/02 09:23:44;;;;;;;14.40;6.47;;;;;;;;;;5016664;28;20141;-55
2021/12/02 09:26:10;;;;;;;11.10;5.90;;;;;;;;;;5017033;28;20022;-53
2021/12/02 09:28:36;;;;;;;15.68;6.22;;;;;;;;;;5017195;28;20426;-54
2021/12/02 09:31:02;;;;;;;10.27;5.00;;;;;;;;;;5016980;28;20061;-53
2021/12/02 09:33:28;;;;;;;11.77;6.30;;;;;;;;;;5017188;28;20527;-53
2021/12/02 09:35:55;;;;;;;11.88;5.20;;;;;;;;;;5017085;28;20030;-54
2021/12/02 09:38:21;;;;;;;15.23;6.93;;;;;;;;;;5017026;28;20072;-54
2021/12/02 09:40:47;;;;;;;10.60;4.93;;;;;;;;;;5016658;28;20034;-55
2021/12/02 09:43:14;;;;;;;10.90;5.40;;;;;;;;;;5016982;28;20026;-53
2021/12/02 09:45:41;;;;;;;16.38;9.25;;;;;;;;;;5016565;28;20511;-54
2021/12/02 09:48:08;;;;;;;14.32;6.85;;;;;;;;;;5016435;28;20522;-53
2021/12/02 09:50:38;;;;;;;7.18;4.72;;;;;;;;;;5016323;28;20048;-56
2021/12/02 09:53:10;;;;;;;11.35;5.75;;;;;;;;;;5016325;28;20101;-53
2021/12/02 09:58:22;;;;;;;18.13;8.95;;;;;;;;;;5016967;28;20038;-49
2021/12/02 10:00:55;;;;;;;11.52;5.18;;;;;;;;;;5016783;28;20049;-47
2021/12/02 10:06:25;;;;;;;10.82;5.82;;;;;;;;;;5015795;28;20475;-50
2021/12/02 10:11:34;;;;;;;10.25;5.32;;;;;;;;;;5016212;28;20475;-52
2021/12/02 10:14:13;;;;;;;12.40;5.47;;;;;;;;;;5016947;28;20030;-50
2021/12/02 10:16:43;;;;;;;11.38;6.70;;;;;;;;;;5015736;28;20101;-52
2021/12/02 10:19:11;;;;;;;10.57;5.82;;;;;;;;;;5016036;28;20014;-50
2021/12/02 10:21:44;;;;;;;12.18;7.43;;;;;;;;;;5015362;28;20083;-53
2021/12/02 10:24:12;;;;;;;7.47;4.13;;;;;;;;;;5016060;28;20050;-55
2021/12/02 10:26:40;;;;;;;16.90;8.05;;;;;;;;;;5015742;28;20597;-55
2021/12/02 10:29:13;;;;;;;15.02;6.63;;;;;;;;;;5015803;28;20099;-54
2021/12/02 10:31:43;;;;;;;7.85;3.38;;;;;;;;;;5014477;28;20033;-56
2021/12/02 10:34:09;;;;;;;7.43;3.72;;;;;;;;;;5015992;28;20029;-54
2021/12/02 10:36:37;;;;;;;10.52;5.18;;;;;;;;;;5015858;28;20057;-53
2021/12/02 10:39:14;;;;;;;15.88;7.28;;;;;;;;;;5015895;28;20533;-53
2021/12/02 10:41:43;;;;;;;10.75;5.20;;;;;;;;;;5015817;28;20030;-55
2021/12/02 10:44:16;;;;;;;7.50;3.97;;;;;;;;;;5015436;28;20463;-52
2021/12/02 10:46:57;;;;;;;8.40;3.95;;;;;;;;;;5015663;28;20114;-50
2021/12/02 10:49:24;;;;;;;8.50;3.90;;;;;;;;;;5015428;28;20018;-53
2021/12/02 10:51:51;;;;;;;6.03;3.88;;;;;;;;;;5015081;28;20479;-55
2021/12/02 10:54:19;;;;;;;10.95;4.70;;;;;;;;;;5015331;28;20030;-54
2021/12/02 10:56:47;;;;;;;10.52;5.03;;;;;;;;;;5015613;28;20048;-54
2021/12/02 10:59:32;;;;;;;10.98;5.47;;;;;;;;;;5015040;28;20022;-50
2021/12/02 11:02:00;;;;;;;7.28;4.53;;;;;;;;;;5015286;28;20053;-51
2021/12/02 11:04:27;;;;;;;8.80;3.92;;;;;;;;;;5015036;28;20022;-52
2021/12/02 11:07:00;;;;;;;3.55;2.55;;;;;;;;;;5016097;28;20018;-54
2021/12/02 11:09:31;;;;;;;6.53;3.22;;;;;;;;;;5015276;28;20486;-50
2021/12/02 11:12:10;;;;;;;8.10;4.80;;;;;;;;;;5015117;28;20034;-54
2021/12/02 11:14:39;;;;;;;5.93;2.95;;;;;;;;;;5015114;28;20038;-52
2021/12/02 11:17:16;;;;;;;9.30;5.90;;;;;;;;;;5014839;28;20105;-50
2021/12/02 11:19:46;;;;;;;4.88;2.22;;;;;;;;;;5014795;28;20021;-53
2021/12/02 11:22:17;;;;;;;14.95;6.93;;;;;;;;;;5014814;28;20034;-53
2021/12/02 11:24:43;;;;;;;11.48;5.78;;;;;;;;;;5015627;28;20395;-52
2021/12/02 11:27:15;;;;;;;12.80;5.63;;;;;;;;;;5014814;28;20109;-51
2021/12/02 11:29:55;;;;;;;8.82;3.92;;;;;;;;;;5014713;28;20029;-53
2021/12/02 11:32:23;;;;;;;9.77;4.90;;;;;;;;;;5014384;28;20557;-53
2021/12/02 11:34:58;;;;;;;7.93;4.60;;;;;;;;;;5014785;28;20033;-52
2021/12/02 11:37:25;;;;;;;6.47;3.83;;;;;;;;;;5014835;28;20034;-48
2021/12/02 11:39:52;;;;;;;13.18;7.20;;;;;;;;;;5014266;28;20503;-50
2021/12/02 11:42:18;;;;;;;9.60;5.05;;;;;;;;;;5014600;28;20471;-52
2021/12/02 11:44:46;;;;;;;13.20;5.45;;;;;;;;;;5014422;28;20049;-49
2021/12/02 11:47:12;;;;;;;15.73;7.35;;;;;;;;;;5014197;28;20030;-55
2021/12/02 11:49:39;;;;;;;10.43;4.90;;;;;;;;;;5014537;28;20470;-53
2021/12/02 11:52:05;;;;;;;13.27;6.50;;;;;;;;;;5014717;28;20037;-48
2021/12/02 11:54:33;;;;;;;5.15;2.67;;;;;;;;;;5014226;28;20352;-50
2021/12/02 11:56:59;;;;;;;6.85;3.20;;;;;;;;;;5014041;28;20471;-54
2021/12/02 11:59:26;;;;;;;4.30;2.13;;;;;;;;;;5014580;28;20029;-50
2021/12/02 12:01:55;;;;;;;7.20;2.97;;;;;;;;;;5013944;28;20026;-52
2021/12/02 12:04:22;;;;;;;3.88;2.00;;;;;;;;;;5014323;28;20028;-53
2021/12/02 12:06:54;;;;;;;4.13;2.28;;;;;;;;;;5014585;28;20022;-54
2021/12/02 12:09:21;;;;;;;3.33;1.45;;;;;;;;;;5013725;28;20033;-52
2021/12/02 12:11:51;;;;;;;3.97;1.63;;;;;;;;;;5014095;28;20088;-52
2021/12/02 12:14:19;;;;;;;5.47;2.25;;;;;;;;;;5013752;28;20101;-53
2021/12/02 12:17:04;;;;;;;4.00;1.75;;;;;;;;;;5014141;28;20164;-53
2021/12/02 12:19:32;;;;;;;3.13;1.80;;;;;;;;;;5014152;28;20470;-53
2021/12/02 12:22:05;;;;;;;3.65;2.28;;;;;;;;;;5014188;28;20368;-55
2021/12/02 12:24:43;;;;;;;2.50;1.30;;;;;;;;;;5014259;28;20486;-54
2021/12/02 12:27:14;;;;;;;3.80;2.10;;;;;;;;;;5014326;28;20026;-51
2021/12/02 12:29:40;;;;;;;5.25;2.22;;;;;;;;;;5013669;28;20026;-51
2021/12/02 12:37:23;;;;;;;4.45;2.15;;;;;;;;;;5013718;28;20034;-55
2021/12/02 12:40:06;;;;;;;7.22;2.45;;;;;;;;;;5014139;28;20060;-49
2021/12/02 12:42:33;;;;;;;10.10;4.25;;;;;;;;;;5013616;28;20470;-53
2021/12/02 12:45:00;;;;;;;18.52;7.07;;;;;;;;;;5013206;28;20406;-55
2021/12/02 12:47:41;;;;;;;24.85;9.50;;;;;;;;;;5013700;28;20033;-51
2021/12/02 12:50:24;;;;;;;34.95;13.73;;;;;;;;;;5013604;28;20024;-53
2021/12/02 12:52:53;;;;;;;11.32;4.82;;;;;;;;;;5013688;28;20030;-52
2021/12/02 12:55:20;;;;;;;3.67;1.95;;;;;;;;;;5013711;28;20065;-51
2021/12/02 12:58:04;;;;;;;3.53;2.58;;;;;;;;;;5013251;28;20029;-56
2021/12/02 13:00:36;;;;;;;6.85;2.67;;;;;;;;;;5013565;28;20131;-52
2021/12/02 13:03:15;;;;;;;6.78;3.03;;;;;;;;;;5013782;28;20033;-53
2021/12/02 13:05:51;;;;;;;8.98;4.43;;;;;;;;;;5013389;28;20568;-50
2021/12/02 13:08:19;;;;;;;22.48;9.20;;;;;;;;;;5013470;28;20033;-52
2021/12/02 13:10:51;;;;;;;12.45;5.43;;;;;;;;;;5013217;28;20026;-51
2021/12/02 13:13:26;;;;;;;10.90;5.82;;;;;;;;;;5013756;28;20112;-50
2021/12/02 13:15:52;;;;;;;9.73;5.50;;;;;;;;;;5013590;28;20021;-49
2021/12/02 13:18:38;;;;;;;12.07;5.80;;;;;;;;;;5013421;28;20038;-51
2021/12/02 13:21:19;;;;;;;13.07;6.38;;;;;;;;;;5013490;28;20018;-48
2021/12/02 13:23:57;;;;;;;19.08;8.00;;;;;;;;;;5013671;28;20054;-54
2021/12/02 13:26:33;;;;;;;13.82;6.88;;;;;;;;;;5013545;28;20036;-53
2021/12/02 13:29:06;;;;;;;16.60;8.35;;;;;;;;;;5013324;28;20483;-53
2021/12/02 13:31:34;;;;;;;17.30;8.52;;;;;;;;;;5013183;28;20065;-53
2021/12/02 13:34:05;;;;;;;15.52;8.00;;;;;;;;;;5013400;28;20018;-54
2021/12/02 13:36:40;;;;;;;9.98;5.65;;;;;;;;;;5013311;28;20463;-53
2021/12/02 13:39:08;;;;;;;7.80;4.78;;;;;;;;;;5012883;28;20361;-53
2021/12/02 13:42:02;;;;;;;13.70;6.85;;;;;;;;;;5013463;28;20390;-54
2021/12/02 13:44:33;;;;;;;14.05;6.55;;;;;;;;;;5012206;28;20387;-55
2021/12/02 13:47:00;;;;;;;18.95;8.05;;;;;;;;;;5013015;28;20022;-55
2021/12/02 13:49:32;;;;;;;18.17;9.70;;;;;;;;;;5012842;28;20022;-52
2021/12/02 13:54:48;;;;;;;10.20;4.80;;;;;;;;;;5012904;28;19951;-55
2021/12/02 13:57:33;;;;;;;5.75;3.22;;;;;;;;;;5016047;28;20069;-52
2021/12/02 14:00:07;;;;;;;11.85;6.03;;;;;;;;;;5016352;28;20026;-55
2021/12/02 14:02:33;;;;;;;11.98;5.80;;;;;;;;;;5015541;28;20615;-57
2021/12/02 14:05:00;;;;;;;11.80;6.60;;;;;;;;;;5016065;28;20037;-53
2021/12/02 14:07:27;;;;;;;9.30;4.70;;;;;;;;;;5016093;28;20029;-52
2021/12/02 14:10:00;;;;;;;13.68;5.75;;;;;;;;;;5016675;28;20033;-56
2021/12/02 14:12:28;;;;;;;19.92;7.10;;;;;;;;;;5016381;28;20042;-51
2021/12/02 14:15:14;;;;;;;10.82;6.10;;;;;;;;;;5015876;28;20030;-54
2021/12/02 14:17:52;;;;;;;12.65;5.53;;;;;;;;;;5014884;28;20037;-55
2021/12/02 14:20:19;;;;;;;15.73;7.80;;;;;;;;;;5016167;28;20125;-54
2021/12/02 14:22:47;;;;;;;15.60;5.95;;;;;;;;;;5032105;28;20025;-53
2021/12/02 14:25:14;;;;;;;17.90;8.70;;;;;;;;;;5032766;28;20014;-54
2021/12/02 14:27:40;;;;;;;11.65;5.57;;;;;;;;;;5035179;28;20024;-51
2021/12/02 14:30:08;;;;;;;17.13;9.38;;;;;;;;;;5035295;28;20053;-55
2021/12/02 14:32:34;;;;;;;25.70;12.48;;;;;;;;;;5032139;28;20524;-55
2021/12/02 14:35:11;;;;;;;26.98;12.40;;;;;;;;;;5034878;28;20103;-52
2021/12/02 14:37:39;;;;;;;13.70;6.35;;;;;;;;;;5032962;28;20017;-55
2021/12/02 14:40:06;;;;;;;16.48;8.55;;;;;;;;;;5035280;28;20405;-56
2021/12/02 14:42:32;;;;;;;22.23;10.48;;;;;;;;;;5034660;28;20026;-56
2021/12/02 14:45:15;;;;;;;19.50;8.70;;;;;;;;;;5034809;28;20017;-58
2021/12/02 14:47:41;;;;;;;15.52;7.47;;;;;;;;;;5034847;28;20022;-57
2021/12/02 14:50:09;;;;;;;15.00;8.18;;;;;;;;;;5034517;28;20030;-49
2021/12/02 14:52:39;;;;;;;8.32;4.70;;;;;;;;;;5034755;28;20030;-56
2021/12/02 14:55:07;;;;;;;8.38;4.18;;;;;;;;;;5032940;28;20093;-55
2021/12/02 14:57:33;;;;;;;15.15;9.00;;;;;;;;;;5034601;28;20029;-54
2021/12/02 15:00:04;;;;;;;57.83;26.45;;;;;;;;;;5034515;28;20017;-54
2021/12/02 15:02:40;;;;;;;44.53;20.42;;;;;;;;;;5034833;28;20100;-55
2021/12/02 15:05:14;;;;;;;21.80;11.75;;;;;;;;;;5034812;28;20370;-54
2021/12/02 15:07:48;;;;;;;18.23;10.23;;;;;;;;;;5032030;28;20100;-56
2021/12/02 15:10:14;;;;;;;13.18;7.03;;;;;;;;;;5031504;28;20017;-49
2021/12/02 15:12:42;;;;;;;15.80;8.10;;;;;;;;;;5034561;28;20029;-55
2021/12/02 15:15:12;;;;;;;8.90;3.63;;;;;;;;;;5034126;28;20021;-56